createdAt,value
2022-09-27T00:00:16.008Z,12.45
2022-09-27T00:02:45.397Z,12.49
2022-09-27T00:05:14.684Z,12.51
2022-09-27T00:07:44.793Z,12.54
2022-09-27T00:10:14.707Z,12.52
2022-09-27T00:12:44.208Z,12.52
2022-09-27T00:15:14.849Z,12.48
2022-09-27T00:17:44.101Z,12.47
2022-09-27T00:20:13.451Z,12.38
2022-09-27T00:22:42.561Z,12.27
2022-09-27T00:25:12.552Z,12.23
2022-09-27T00:27:41.850Z,12.26
2022-09-27T00:30:15.032Z,12.28
2022-09-27T00:32:44.200Z,12.25
2022-09-27T00:38:20.173Z,12.27
2022-09-27T00:40:50.048Z,12.26
2022-09-27T00:43:22.410Z,12.27
2022-09-27T00:45:58.008Z,12.28
2022-09-27T00:48:32.715Z,12.26
2022-09-27T00:51:06.596Z,12.25
2022-09-27T00:53:41.072Z,12.23
2022-09-27T00:56:14.850Z,12.16
2022-09-27T00:58:58.463Z,12.08
2022-09-27T01:01:30.698Z,12.05
2022-09-27T01:04:05.053Z,12.08
2022-09-27T01:06:34.737Z,12.07
2022-09-27T01:09:04.136Z,12.09
2022-09-27T01:11:43.827Z,12.13
2022-09-27T01:14:38.320Z,12.17
2022-09-27T01:17:32.230Z,12.25
2022-09-27T01:20:31.361Z,12.19
2022-09-27T01:23:30.322Z,12.22
2022-09-27T01:26:15.048Z,12.08
2022-09-27T01:29:01.915Z,12.08
2022-09-27T01:31:38.257Z,12.09
2022-09-27T01:34:18.156Z,12.13
2022-09-27T01:36:58.932Z,12.16
2022-09-27T01:39:41.346Z,12.17
2022-09-27T01:42:43.307Z,12.20
2022-09-27T01:45:21.377Z,12.25
2022-09-27T01:48:10.970Z,12.29
2022-09-27T01:51:13.748Z,12.31
2022-09-27T01:53:53.361Z,12.31
2022-09-27T01:56:45.226Z,12.33
2022-09-27T01:59:29.840Z,12.32
2022-09-27T02:02:28.544Z,12.31
2022-09-27T02:05:21.534Z,12.30
2022-09-27T02:08:00.187Z,12.26
2022-09-27T02:10:35.124Z,12.27
2022-09-27T02:13:23.795Z,12.28
2022-09-27T02:16:12.935Z,12.25
2022-09-27T02:18:57.077Z,12.23
2022-09-27T02:21:38.366Z,12.25
2022-09-27T02:24:14.080Z,12.26
2022-09-27T02:26:51.345Z,12.28
2022-09-27T02:29:27.299Z,12.31
2022-09-27T02:31:57.544Z,12.31
2022-09-27T02:34:30.610Z,12.33
2022-09-27T02:37:02.093Z,12.31
2022-09-27T02:39:31.527Z,12.34
2022-09-27T02:42:07.246Z,12.35
2022-09-27T02:44:39.125Z,12.33
2022-09-27T02:47:39.425Z,12.37
2022-09-27T02:50:31.167Z,12.34
2022-09-27T02:53:13.286Z,12.36
2022-09-27T02:56:01.548Z,12.36
2022-09-27T02:59:04.957Z,12.35
2022-09-27T03:02:12.505Z,12.35
2022-09-27T03:05:11.154Z,12.33
2022-09-27T03:07:41.135Z,12.41
2022-09-27T03:10:19.656Z,12.34
2022-09-27T03:12:49.494Z,12.36
2022-09-27T03:15:27.174Z,12.30
2022-09-27T03:18:03.109Z,12.30
2022-09-27T03:20:58.165Z,12.34
2022-09-27T03:23:28.787Z,12.25
2022-09-27T03:25:59.845Z,12.18
2022-09-27T03:28:29.966Z,12.18
2022-09-27T03:31:00.227Z,12.26
2022-09-27T03:33:52.607Z,12.26
2022-09-27T03:36:22.413Z,12.21
2022-09-27T03:38:51.698Z,12.28
2022-09-27T03:41:24.088Z,12.24
2022-09-27T03:43:56.707Z,12.27
2022-09-27T03:46:28.595Z,12.35
2022-09-27T03:49:00.156Z,12.35
2022-09-27T03:51:29.555Z,12.21
2022-09-27T03:53:58.915Z,12.18
2022-09-27T03:56:30.748Z,12.15
2022-09-27T03:59:00.237Z,12.07
2022-09-27T04:01:31.546Z,12.12
2022-09-27T04:04:18.797Z,12.17
2022-09-27T04:06:49.226Z,12.20
2022-09-27T04:09:19.608Z,12.24
2022-09-27T04:12:00.641Z,12.26
2022-09-27T04:14:30.088Z,12.28
2022-09-27T04:17:18.988Z,12.30
2022-09-27T04:20:10.128Z,12.33
2022-09-27T04:22:44.221Z,12.35
2022-09-27T04:25:40.988Z,12.36
2022-09-27T04:28:40.883Z,12.34
2022-09-27T04:31:10.339Z,12.35
2022-09-27T04:34:14.973Z,12.33
2022-09-27T04:36:43.293Z,12.36
2022-09-27T04:39:17.057Z,12.37
2022-09-27T04:41:48.831Z,12.37
2022-09-27T04:44:19.619Z,12.37
2022-09-27T04:46:52.633Z,12.38
2022-09-27T04:49:31.286Z,12.39
2022-09-27T04:52:00.910Z,12.38
2022-09-27T04:54:30.586Z,12.41
2022-09-27T04:57:13.151Z,12.40
2022-09-27T04:59:44.820Z,12.39
2022-09-27T05:02:15.861Z,12.41
2022-09-27T05:05:06.868Z,12.43
2022-09-27T05:07:40.619Z,12.46
2022-09-27T05:10:15.250Z,12.43
2022-09-27T05:12:44.699Z,12.46
2022-09-27T05:15:21.947Z,12.47
2022-09-27T05:18:30.200Z,12.50
2022-09-27T05:21:28.501Z,12.51
2022-09-27T05:23:58.118Z,12.53
2022-09-27T05:26:27.465Z,12.56
2022-09-27T05:28:56.862Z,12.55
2022-09-27T05:31:28.153Z,12.60
2022-09-27T05:33:57.752Z,12.59
2022-09-27T05:36:39.542Z,12.60
2022-09-27T05:39:09.132Z,12.64
2022-09-27T05:41:38.869Z,12.65
2022-09-27T05:44:10.595Z,12.71
2022-09-27T05:46:48.286Z,12.73
2022-09-27T05:49:17.855Z,12.73
2022-09-27T05:51:47.558Z,12.75
2022-09-27T05:54:16.974Z,12.76
2022-09-27T05:56:46.652Z,12.75
2022-09-27T05:59:33.145Z,12.76
2022-09-27T06:02:24.001Z,12.82
2022-09-27T06:05:11.764Z,12.80
2022-09-27T06:08:00.904Z,12.84
2022-09-27T06:10:36.811Z,12.89
2022-09-27T06:13:12.318Z,12.98
2022-09-27T06:15:47.332Z,13.06
2022-09-27T06:18:18.431Z,13.14
2022-09-27T06:20:50.985Z,13.19
2022-09-27T06:23:22.537Z,13.27
2022-09-27T06:25:53.823Z,13.35
2022-09-27T06:28:26.653Z,13.42
2022-09-27T06:31:00.638Z,13.47
2022-09-27T06:33:52.352Z,13.49
2022-09-27T06:36:21.888Z,13.49
2022-09-27T06:38:51.218Z,13.51
2022-09-27T06:41:24.494Z,13.52
2022-09-27T06:44:18.086Z,13.53
2022-09-27T06:47:05.937Z,13.44
2022-09-27T06:49:54.968Z,13.45
2022-09-27T06:52:31.253Z,13.45
2022-09-27T06:55:00.576Z,13.47
2022-09-27T06:57:47.362Z,13.47
2022-09-27T07:00:27.746Z,13.50
2022-09-27T07:03:36.532Z,13.53
2022-09-27T07:06:42.252Z,13.55
2022-09-27T07:09:21.244Z,13.59
2022-09-27T07:11:50.491Z,13.61
2022-09-27T07:14:20.795Z,13.62
2022-09-27T07:16:51.080Z,13.62
2022-09-27T07:19:21.425Z,13.58
2022-09-27T07:21:55.681Z,13.59
2022-09-27T07:24:26.097Z,13.61
2022-09-27T07:26:55.690Z,13.64
2022-09-27T07:29:25.960Z,13.70
2022-09-27T07:31:56.871Z,13.82
2022-09-27T07:34:26.455Z,13.93
2022-09-27T07:37:00.503Z,14.09
2022-09-27T07:39:31.038Z,14.20
2022-09-27T07:42:04.221Z,14.27
2022-09-27T07:44:33.822Z,14.28
2022-09-27T07:47:32.530Z,14.28
2022-09-27T07:50:09.698Z,14.20
2022-09-27T07:52:59.318Z,14.14
2022-09-27T07:55:37.018Z,14.10
2022-09-27T07:58:13.984Z,14.02
2022-09-27T08:00:44.567Z,13.90
2022-09-27T08:03:17.691Z,13.78
2022-09-27T08:05:49.861Z,13.69
2022-09-27T08:08:21.016Z,13.75
2022-09-27T08:10:52.523Z,13.85
2022-09-27T08:13:22.641Z,14.00
2022-09-27T08:15:54.986Z,14.13
2022-09-27T08:18:26.083Z,14.27
2022-09-27T08:21:01.403Z,14.52
2022-09-27T08:23:43.157Z,14.90
2022-09-27T08:26:32.406Z,15.21
2022-09-27T08:29:14.226Z,15.18
2022-09-27T08:31:53.992Z,15.18
2022-09-27T08:34:24.361Z,15.16
2022-09-27T08:36:54.414Z,15.32
2022-09-27T08:39:25.486Z,15.56
2022-09-27T08:42:03.828Z,15.75
2022-09-27T08:44:44.466Z,15.92
2022-09-27T08:47:20.765Z,15.77
2022-09-27T08:49:57.404Z,16.00
2022-09-27T08:52:32.802Z,16.02
2022-09-27T08:55:29.089Z,16.19
2022-09-27T08:58:01.280Z,16.19
2022-09-27T09:00:32.657Z,16.02
2022-09-27T09:03:03.955Z,15.67
2022-09-27T09:05:38.272Z,15.34
2022-09-27T09:08:32.773Z,15.46
2022-09-27T09:11:31.207Z,15.19
2022-09-27T09:14:24.914Z,15.22
2022-09-27T09:17:06.154Z,15.11
2022-09-27T09:20:02.481Z,15.28
2022-09-27T09:22:56.900Z,15.51
2022-09-27T09:25:36.380Z,15.40
2022-09-27T09:28:30.521Z,15.33
2022-09-27T09:31:11.833Z,15.49
2022-09-27T09:33:47.722Z,15.67
2022-09-27T09:36:28.720Z,15.69
2022-09-27T09:39:03.861Z,15.65
2022-09-27T09:41:40.565Z,15.60
2022-09-27T09:44:21.215Z,15.52
2022-09-27T09:46:55.677Z,15.38
2022-09-27T09:49:31.829Z,15.29
2022-09-27T09:52:09.071Z,15.26
2022-09-27T09:54:44.252Z,15.19
2022-09-27T09:57:18.132Z,15.15
2022-09-27T09:59:54.587Z,15.20
2022-09-27T10:02:33.359Z,15.24
2022-09-27T10:05:17.965Z,15.30
2022-09-27T10:07:51.728Z,15.27
2022-09-27T10:10:22.996Z,15.29
2022-09-27T10:13:04.786Z,15.30
2022-09-27T10:15:39.783Z,15.32
2022-09-27T10:18:18.998Z,15.32
2022-09-27T10:20:53.936Z,15.39
2022-09-27T10:23:26.673Z,15.54
2022-09-27T10:26:21.629Z,15.73
2022-09-27T10:28:52.376Z,15.75
2022-09-27T10:31:38.885Z,15.83
2022-09-27T10:34:31.880Z,15.90
2022-09-27T10:37:19.053Z,15.78
2022-09-27T10:39:59.870Z,15.40
2022-09-27T10:42:38.707Z,15.11
2022-09-27T10:45:29.262Z,14.78
2022-09-27T10:48:23.691Z,14.49
2022-09-27T10:51:01.623Z,14.40
2022-09-27T10:53:52.175Z,14.16
2022-09-27T10:56:31.979Z,13.69
2022-09-27T10:59:02.977Z,12.87
2022-09-27T11:01:45.470Z,12.52
2022-09-27T11:05:11.239Z,11.77
2022-09-27T11:07:52.788Z,11.67
2022-09-27T11:10:28.820Z,11.79
2022-09-27T11:13:13.209Z,11.76
2022-09-27T11:16:09.953Z,11.63
2022-09-27T11:18:50.556Z,11.58
2022-09-27T11:21:31.927Z,11.91
2022-09-27T11:24:22.903Z,12.32
2022-09-27T11:27:05.791Z,12.62
2022-09-27T11:29:53.294Z,12.91
2022-09-27T11:33:11.141Z,13.18
2022-09-27T11:36:00.226Z,12.78
2022-09-27T11:38:52.681Z,12.61
2022-09-27T11:41:48.327Z,12.56
2022-09-27T11:44:48.379Z,12.61
2022-09-27T11:47:34.909Z,12.96
2022-09-27T11:50:47.952Z,13.25
2022-09-27T11:53:34.756Z,13.46
2022-09-27T11:56:21.425Z,13.65
2022-09-27T11:59:09.835Z,13.68
2022-09-27T12:01:51.420Z,13.74
2022-09-27T12:04:47.536Z,13.99
2022-09-27T12:07:25.208Z,14.15
2022-09-27T12:10:00.972Z,14.29
2022-09-27T12:12:36.608Z,14.28
2022-09-27T12:15:14.375Z,14.13
2022-09-27T12:17:49.095Z,14.13
2022-09-27T12:20:24.606Z,14.17
2022-09-27T12:23:00.677Z,14.08
2022-09-27T12:25:50.879Z,14.12
2022-09-27T12:28:37.072Z,14.14
2022-09-27T12:34:19.873Z,13.97
2022-09-27T12:37:00.975Z,13.96
2022-09-27T12:39:43.094Z,13.98
2022-09-27T12:42:27.104Z,13.95
2022-09-27T12:45:03.497Z,13.79
2022-09-27T12:47:57.823Z,13.66
2022-09-27T12:50:36.931Z,13.43
2022-09-27T12:53:23.391Z,13.23
2022-09-27T12:56:36.530Z,13.46
2022-09-27T12:59:29.456Z,13.36
2022-09-27T13:03:03.908Z,13.32
2022-09-27T13:06:14.233Z,13.40
2022-09-27T13:09:37.924Z,13.53
2022-09-27T13:12:12.188Z,13.29
2022-09-27T13:15:00.101Z,13.44
2022-09-27T13:17:56.223Z,13.36
2022-09-27T13:20:49.408Z,13.12
2022-09-27T13:23:53.164Z,13.12
2022-09-27T13:26:53.070Z,13.39
2022-09-27T13:29:34.377Z,13.42
2022-09-27T13:32:22.503Z,13.53
2022-09-27T13:35:21.599Z,13.61
2022-09-27T13:38:23.961Z,13.71
2022-09-27T13:40:56.946Z,13.76
2022-09-27T13:43:50.700Z,13.89
2022-09-27T13:46:52.977Z,13.93
2022-09-27T13:49:31.603Z,13.87
2022-09-27T13:52:26.414Z,13.89
2022-09-27T13:55:45.877Z,13.95
2022-09-27T13:58:48.179Z,14.00
2022-09-27T14:01:55.657Z,13.98
2022-09-27T14:04:37.245Z,14.01
2022-09-27T14:07:06.985Z,14.08
2022-09-27T14:09:42.589Z,14.11
2022-09-27T14:12:35.918Z,14.10
2022-09-27T14:15:11.587Z,14.11
2022-09-27T14:17:45.968Z,14.12
2022-09-27T14:20:38.913Z,14.08
2022-09-27T14:23:19.860Z,14.00
2022-09-27T14:25:55.388Z,13.93
2022-09-27T14:28:28.646Z,13.88
2022-09-27T14:31:14.902Z,13.85
2022-09-27T14:34:10.223Z,13.78
2022-09-27T14:37:04.026Z,13.68
2022-09-27T14:39:39.642Z,13.69
2022-09-27T14:42:28.756Z,13.72
2022-09-27T14:45:04.633Z,13.59
2022-09-27T14:47:34.360Z,13.52
2022-09-27T14:50:19.031Z,13.42
2022-09-27T14:52:49.922Z,13.33
2022-09-27T14:55:23.139Z,13.33
2022-09-27T14:57:55.919Z,13.51
2022-09-27T15:00:29.269Z,13.39
2022-09-27T15:03:00.257Z,13.32
2022-09-27T15:05:32.224Z,13.34
2022-09-27T15:08:05.983Z,13.28
2022-09-27T15:13:42.353Z,13.06
2022-09-27T15:16:20.099Z,13.05
2022-09-27T15:18:51.389Z,13.11
2022-09-27T15:21:31.074Z,13.29
2022-09-27T15:24:03.772Z,13.21
2022-09-27T15:26:39.406Z,13.16
2022-09-27T15:29:20.398Z,13.16
2022-09-27T15:32:00.940Z,13.16
2022-09-27T15:34:30.683Z,13.14
2022-09-27T15:37:03.533Z,13.13
2022-09-27T15:39:35.358Z,13.13
2022-09-27T15:42:13.581Z,13.15
2022-09-27T15:44:49.661Z,13.18
2022-09-27T15:47:50.804Z,13.23
2022-09-27T15:50:41.174Z,13.25
2022-09-27T15:53:11.443Z,13.26
2022-09-27T15:55:45.678Z,13.29
2022-09-27T15:58:20.267Z,13.37
2022-09-27T16:00:56.237Z,13.44
2022-09-27T16:03:27.835Z,13.47
2022-09-27T16:06:05.233Z,13.42
2022-09-27T16:08:36.519Z,13.30
2022-09-27T16:11:05.839Z,13.18
2022-09-27T16:13:35.981Z,13.07
2022-09-27T16:16:07.504Z,12.98
2022-09-27T16:18:36.709Z,12.90
2022-09-27T16:21:06.538Z,12.80
2022-09-27T16:23:36.644Z,12.73
2022-09-27T16:26:06.591Z,12.66
2022-09-27T16:28:36.826Z,12.61
2022-09-27T16:31:10.239Z,12.57
2022-09-27T16:33:40.523Z,12.48
2022-09-27T16:36:14.628Z,12.37
2022-09-27T16:38:44.463Z,12.31
2022-09-27T16:41:13.606Z,12.20
2022-09-27T16:43:42.873Z,12.18
2022-09-27T16:46:16.009Z,12.17
2022-09-27T16:48:45.492Z,12.12
2022-09-27T16:51:36.129Z,12.17
2022-09-27T16:54:09.644Z,12.06
2022-09-27T16:56:38.865Z,12.06
2022-09-27T16:59:07.986Z,12.15
2022-09-27T17:01:40.741Z,12.08
2022-09-27T17:04:11.278Z,12.08
2022-09-27T17:06:40.445Z,12.07
2022-09-27T17:09:12.086Z,12.02
2022-09-27T17:11:42.489Z,11.94
2022-09-27T17:14:14.448Z,11.91
2022-09-27T17:16:47.528Z,11.84
2022-09-27T17:19:18.558Z,11.79
2022-09-27T17:21:49.160Z,11.80
2022-09-27T17:24:18.742Z,11.82
2022-09-27T17:26:48.698Z,11.81
2022-09-27T17:29:18.342Z,11.77
2022-09-27T17:31:49.167Z,11.74
2022-09-27T17:34:19.018Z,11.72
2022-09-27T17:36:51.764Z,11.73
2022-09-27T17:39:22.874Z,11.73
2022-09-27T17:41:52.653Z,11.72
2022-09-27T17:44:23.802Z,11.71
2022-09-27T17:47:15.573Z,11.78
2022-09-27T17:50:02.110Z,11.81
2022-09-27T17:52:32.829Z,11.72
2022-09-27T17:55:02.050Z,11.71
2022-09-27T17:57:31.889Z,11.68
2022-09-27T18:00:01.301Z,11.61
2022-09-27T18:02:31.911Z,11.62
2022-09-27T18:05:02.531Z,11.56
2022-09-27T18:07:32.421Z,11.52
2022-09-27T18:10:04.507Z,11.45
2022-09-27T18:12:34.895Z,11.42
2022-09-27T18:15:04.146Z,11.42
2022-09-27T18:17:40.556Z,11.44
2022-09-27T18:20:13.845Z,11.50
2022-09-27T18:22:43.267Z,11.39
2022-09-27T18:25:16.545Z,11.42
2022-09-27T18:27:50.141Z,11.38
2022-09-27T18:30:19.992Z,11.37
2022-09-27T18:32:53.805Z,11.38
2022-09-27T18:35:24.793Z,11.38
2022-09-27T18:37:57.459Z,11.33
2022-09-27T18:40:54.686Z,11.31
2022-09-27T18:43:26.029Z,11.32
2022-09-27T18:46:07.754Z,11.34
2022-09-27T18:48:52.611Z,11.34
2022-09-27T18:51:27.026Z,11.36
2022-09-27T18:53:57.993Z,11.32
2022-09-27T18:56:28.548Z,11.30
2022-09-27T18:58:58.821Z,11.29
2022-09-27T19:01:31.407Z,11.21
2022-09-27T19:04:03.032Z,11.14
2022-09-27T19:06:32.452Z,11.08
2022-09-27T19:09:03.791Z,11.11
2022-09-27T19:11:36.613Z,11.43
2022-09-27T19:14:05.980Z,11.49
2022-09-27T19:16:37.267Z,11.34
2022-09-27T19:19:11.430Z,11.16
2022-09-27T19:21:41.918Z,10.99
2022-09-27T19:24:11.910Z,11.01
2022-09-27T19:26:41.445Z,11.00
2022-09-27T19:29:10.986Z,11.02
2022-09-27T19:31:41.212Z,11.05
2022-09-27T19:34:13.414Z,11.10
2022-09-27T19:36:42.856Z,11.09
2022-09-27T19:39:12.174Z,11.12
2022-09-27T19:41:41.599Z,11.14
2022-09-27T19:44:11.052Z,11.20
2022-09-27T19:46:40.572Z,11.23
2022-09-27T19:49:09.822Z,11.26
2022-09-27T19:51:40.483Z,11.25
2022-09-27T19:54:12.930Z,11.21
2022-09-27T19:56:43.250Z,11.20
2022-09-27T19:59:15.255Z,11.17
2022-09-27T20:01:44.560Z,11.18
2022-09-27T20:04:16.666Z,11.35
2022-09-27T20:06:48.716Z,11.31
2022-09-27T20:09:17.933Z,11.17
2022-09-27T20:11:49.890Z,11.15
2022-09-27T20:14:19.728Z,11.21
2022-09-27T20:16:50.945Z,11.24
2022-09-27T20:19:22.478Z,11.20
2022-09-27T20:21:54.805Z,11.10
2022-09-27T20:24:25.158Z,11.07
2022-09-27T20:26:54.675Z,11.11
2022-09-27T20:29:23.783Z,11.04
2022-09-27T20:32:15.878Z,11.01
2022-09-27T20:34:43.215Z,11.06
2022-09-27T20:37:14.676Z,11.06
2022-09-27T20:39:43.814Z,10.98
2022-09-27T20:42:12.977Z,11.03
2022-09-27T20:44:42.048Z,10.92
2022-09-27T20:47:11.123Z,11.00
2022-09-27T20:49:42.932Z,11.01
2022-09-27T20:52:13.538Z,11.03
2022-09-27T20:54:42.642Z,11.10
2022-09-27T20:57:11.657Z,11.15
2022-09-27T20:59:40.858Z,11.03
2022-09-27T21:02:09.995Z,10.80
2022-09-27T21:04:41.253Z,10.74
2022-09-27T21:07:10.481Z,10.72
2022-09-27T21:09:41.144Z,10.69
2022-09-27T21:12:10.202Z,10.73
2022-09-27T21:14:39.320Z,10.71
2022-09-27T21:17:11.662Z,10.69
2022-09-27T21:19:40.885Z,10.76
2022-09-27T21:22:11.560Z,10.77
2022-09-27T21:24:42.080Z,10.77
2022-09-27T21:27:12.931Z,10.84
2022-09-27T21:29:44.265Z,10.85
2022-09-27T21:32:13.429Z,10.92
2022-09-27T21:34:42.581Z,10.93
2022-09-27T21:37:11.705Z,10.97
2022-09-27T21:39:42.339Z,11.02
2022-09-27T21:42:11.501Z,11.05
2022-09-27T21:44:40.612Z,10.93
2022-09-27T21:47:09.652Z,10.81
2022-09-27T21:49:38.737Z,10.73
2022-09-27T21:52:07.834Z,10.52
2022-09-27T21:54:36.962Z,10.44
2022-09-27T21:57:07.597Z,10.47
2022-09-27T21:59:36.658Z,10.47
2022-09-27T22:02:05.839Z,10.30
2022-09-27T22:04:34.960Z,10.22
2022-09-27T22:07:04.177Z,10.21
2022-09-27T22:09:33.374Z,10.18
2022-09-27T22:12:03.348Z,10.07
2022-09-27T22:14:36.372Z,10.02
2022-09-27T22:17:05.673Z,10.10
2022-09-27T22:19:37.474Z,10.24
2022-09-27T22:22:06.580Z,10.13
2022-09-27T22:24:36.070Z,10.11
2022-09-27T22:27:05.391Z,9.99
2022-09-27T22:29:36.189Z,10.03
2022-09-27T22:32:05.313Z,9.87
2022-09-27T22:34:45.853Z,9.81
2022-09-27T22:37:15.038Z,9.79
2022-09-27T22:39:44.064Z,9.91
2022-09-27T22:42:13.255Z,9.92
2022-09-27T22:44:43.738Z,9.81
2022-09-27T22:47:13.107Z,9.74
2022-09-27T22:49:42.210Z,9.78
2022-09-27T22:52:13.442Z,9.81
2022-09-27T22:54:42.508Z,9.70
2022-09-27T22:57:11.651Z,9.69
2022-09-27T22:59:40.841Z,9.63
2022-09-27T23:02:11.300Z,9.54
2022-09-27T23:04:40.288Z,9.52
2022-09-27T23:07:10.170Z,9.41
2022-09-27T23:09:39.381Z,9.39
2022-09-27T23:12:08.546Z,9.18
2022-09-27T23:14:42.559Z,9.04
2022-09-27T23:17:13.988Z,9.04
2022-09-27T23:19:43.131Z,8.97
2022-09-27T23:22:12.227Z,8.89
2022-09-27T23:24:41.327Z,8.81
2022-09-27T23:27:27.856Z,8.77
2022-09-27T23:29:56.909Z,8.84
2022-09-27T23:32:31.554Z,8.80
2022-09-27T23:35:00.990Z,8.78
2022-09-27T23:37:30.339Z,8.73
2022-09-27T23:39:59.491Z,8.73
2022-09-27T23:42:28.577Z,8.70
2022-09-27T23:44:57.733Z,8.62
2022-09-27T23:47:28.296Z,8.54
2022-09-27T23:49:59.481Z,8.43
2022-09-27T23:52:28.548Z,8.34
2022-09-27T23:54:57.648Z,8.36
2022-09-27T23:57:26.749Z,8.44
2022-09-27T23:59:55.810Z,8.48
